PWSweather.com
Personal Weather Stations
Station Observations
KVAGLENALL
West Henrico, Glen Allen, VA 23060-6503

West HenricoGlen Allen, VA 23060-6503

Lat: 37.6554, Lon: -77.5693

Elevation: 273

Station Type: Davis Vantage Pro II

www.glenallenweather.com

High Low Average
Temperature 79.6°F26.4°C 69.0°F20.6°C 72.0°F22.2°C
Dew Point 74.3°F23.5°C 68.0°F20.0°C 70.1°F21.2°C
Winds 19.0 mph 30.6 kmh Calm Calm 1.0 mph SE1.6 kmh SE
Wind Gusts 19.2 mph30.9 kmh -- 2.0 mph3.2 kmh
Humidity 98% 81% 94%
Pressure 30.00 in1015.9 mb 29.93 in1013.5 mb -
Precipitation 0.00 in0.0 mm - -
Hour Temp Dew Point Humidity Winds Wind Gusts Pressure Precip Precip Rate Daily Precip Total
12:00 AM 75.8°F24.3°C 67.7°F19.8°C 76% 2.0 mph S3.2 kmh S 3.0 mph4.8 kmh 29.96 in1014.6 mb 0.00 in0.0 mm 0.00 in0.0 mm 0.00 in0.0 mm
12:15 AM 75.5°F24.2°C 67.8°F19.9°C 77% 2.0 mph SSW3.2 kmh SSW 5.1 mph8.2 kmh 29.96 in1014.6 mb 0.00 in0.0 mm 0.00 in0.0 mm 0.00 in0.0 mm
12:30 AM 75.4°F24.1°C 68.1°F20.1°C 78% 4.0 mph SSW6.4 kmh SSW 7.1 mph11.4 kmh 29.97 in1014.9 mb 0.00 in0.0 mm 0.00 in0.0 mm 0.00 in0.0 mm
12:45 AM 74.3°F23.5°C 68.8°F20.4°C 83% 2.0 mph SW3.2 kmh SW 4.0 mph6.4 kmh 29.98 in1015.2 mb 0.00 in0.0 mm 0.00 in0.0 mm 0.00 in0.0 mm
01:00 AM 72.9°F22.7°C 68.8°F20.4°C 87% Calm Calm 1.0 mph1.6 kmh 29.99 in1015.6 mb 0.00 in0.0 mm 0.00 in0.0 mm 0.00 in0.0 mm
01:15 AM 72.1°F22.3°C 68.6°F20.3°C 89% Calm Calm -- 29.99 in1015.6 mb 0.01 in0.3 mm 0.04 in1.0 mm 0.01 in0.3 mm
01:30 AM 71.5°F21.9°C 68.7°F20.4°C 91% 4.0 mph NE6.4 kmh NE 5.1 mph8.2 kmh 30.00 in1015.9 mb 0.01 in0.3 mm 0.00 in0.0 mm 0.01 in0.3 mm
01:45 AM 71.2°F21.8°C 68.4°F20.2°C 91% 1.0 mph NNE1.6 kmh NNE 4.0 mph6.4 kmh 30.00 in1015.9 mb 0.02 in0.5 mm 0.04 in1.0 mm 0.02 in0.5 mm
02:00 AM 70.6°F21.4°C 68.1°F20.1°C 92% 3.0 mph NE4.8 kmh NE 3.0 mph4.8 kmh 30.00 in1015.9 mb 0.02 in0.5 mm 0.00 in0.0 mm 0.02 in0.5 mm
02:15 AM 70.4°F21.3°C 68.2°F20.1°C 93% Calm Calm -- 30.00 in1015.9 mb 0.02 in0.5 mm 0.00 in0.0 mm 0.02 in0.5 mm
02:30 AM 70.3°F21.3°C 68.5°F20.3°C 94% 1.0 mph N1.6 kmh N 2.0 mph3.2 kmh 30.00 in1015.9 mb 0.02 in0.5 mm 0.00 in0.0 mm 0.02 in0.5 mm
02:45 AM 70.2°F21.2°C 68.4°F20.2°C 94% Calm Calm -- 29.99 in1015.6 mb 0.03 in0.8 mm 0.04 in1.0 mm 0.03 in0.8 mm
03:00 AM 70.1°F21.2°C 68.3°F20.2°C 94% Calm Calm 2.0 mph3.2 kmh 29.99 in1015.6 mb 0.03 in0.8 mm 0.00 in0.0 mm 0.03 in0.8 mm
03:15 AM 69.9°F21.1°C 68.4°F20.2°C 95% Calm Calm -- 29.99 in1015.6 mb 0.03 in0.8 mm 0.00 in0.0 mm 0.03 in0.8 mm
03:30 AM 69.8°F21.0°C 68.3°F20.2°C 95% Calm Calm -- 29.98 in1015.2 mb 0.02 in0.5 mm 0.00 in0.0 mm 0.03 in0.8 mm
03:45 AM 69.6°F20.9°C 68.4°F20.2°C 96% Calm Calm -- 29.98 in1015.2 mb 0.02 in0.5 mm 0.00 in0.0 mm 0.03 in0.8 mm
04:00 AM 69.6°F20.9°C 68.4°F20.2°C 96% Calm Calm -- 29.98 in1015.2 mb 0.00 in0.0 mm 0.00 in0.0 mm 0.03 in0.8 mm
04:15 AM 69.6°F20.9°C 68.4°F20.2°C 96% Calm Calm -- 29.98 in1015.2 mb 0.00 in0.0 mm 0.00 in0.0 mm 0.03 in0.8 mm
04:30 AM 69.7°F20.9°C 68.5°F20.3°C 96% Calm Calm -- 29.98 in1015.2 mb 0.00 in0.0 mm 0.00 in0.0 mm 0.03 in0.8 mm
04:45 AM 69.6°F20.9°C 68.4°F20.2°C 96% Calm Calm -- 29.98 in1015.2 mb 0.01 in0.3 mm 0.04 in1.0 mm 0.04 in1.0 mm
05:00 AM 69.6°F20.9°C 68.4°F20.2°C 96% Calm Calm -- 29.97 in1014.9 mb 0.01 in0.3 mm 0.00 in0.0 mm 0.04 in1.0 mm
05:15 AM 69.5°F20.8°C 68.3°F20.2°C 96% 1.0 mph N1.6 kmh N 2.0 mph3.2 kmh 29.97 in1014.9 mb 0.01 in0.3 mm 0.00 in0.0 mm 0.04 in1.0 mm
05:30 AM 69.2°F20.7°C 68.1°F20.1°C 96% 1.0 mph E1.6 kmh E 3.0 mph4.8 kmh 29.97 in1014.9 mb 0.01 in0.3 mm 0.00 in0.0 mm 0.04 in1.0 mm
05:45 AM 69.1°F20.6°C 68.0°F20.0°C 96% Calm Calm -- 29.97 in1014.9 mb 0.01 in0.3 mm 0.00 in0.0 mm 0.04 in1.0 mm
06:00 AM 69.1°F20.6°C 68.0°F20.0°C 96% Calm Calm -- 29.98 in1015.2 mb 0.00 in0.0 mm 0.00 in0.0 mm 0.04 in1.0 mm
06:15 AM 69.0°F20.6°C 68.2°F20.1°C 97% 1.0 mph ESE1.6 kmh ESE 2.0 mph3.2 kmh 29.98 in1015.2 mb 0.00 in0.0 mm 0.00 in0.0 mm 0.04 in1.0 mm
06:30 AM 69.2°F20.7°C 68.4°F20.2°C 97% Calm Calm 1.0 mph1.6 kmh 29.98 in1015.2 mb 0.00 in0.0 mm 0.00 in0.0 mm 0.04 in1.0 mm
06:45 AM 69.6°F20.9°C 68.7°F20.4°C 97% 2.0 mph E3.2 kmh E 3.0 mph4.8 kmh 29.99 in1015.6 mb 0.00 in0.0 mm 0.00 in0.0 mm 0.04 in1.0 mm
07:00 AM 69.9°F21.1°C 69.3°F20.7°C 98% 3.0 mph E4.8 kmh E 3.0 mph4.8 kmh 29.99 in1015.6 mb 0.00 in0.0 mm 0.00 in0.0 mm 0.04 in1.0 mm
07:15 AM 70.3°F21.3°C 69.7°F20.9°C 98% 1.0 mph SSE1.6 kmh SSE 3.0 mph4.8 kmh 29.99 in1015.6 mb 0.00 in0.0 mm 0.00 in0.0 mm 0.04 in1.0 mm
07:30 AM 70.7°F21.5°C 70.1°F21.2°C 98% 2.0 mph ESE3.2 kmh ESE 4.0 mph6.4 kmh 29.99 in1015.6 mb 0.00 in0.0 mm 0.00 in0.0 mm 0.04 in1.0 mm
07:45 AM 71.3°F21.8°C 70.4°F21.3°C 97% 1.0 mph ESE1.6 kmh ESE 6.1 mph9.8 kmh 29.99 in1015.6 mb 0.00 in0.0 mm 0.00 in0.0 mm 0.04 in1.0 mm
08:00 AM 71.7°F22.1°C 70.5°F21.4°C 96% 1.0 mph SE1.6 kmh SE 2.0 mph3.2 kmh 29.99 in1015.6 mb 0.00 in0.0 mm 0.00 in0.0 mm 0.04 in1.0 mm
08:15 AM 72.2°F22.3°C 71.0°F21.7°C 96% Calm Calm 2.0 mph3.2 kmh 29.99 in1015.6 mb 0.00 in0.0 mm 0.00 in0.0 mm 0.04 in1.0 mm
08:30 AM 73.1°F22.8°C 71.2°F21.8°C 94% 2.0 mph S3.2 kmh S 6.1 mph9.8 kmh 30.00 in1015.9 mb 0.00 in0.0 mm 0.00 in0.0 mm 0.04 in1.0 mm
10:15 AM 76.9°F24.9°C 72.4°F22.4°C 86% 5.0 mph S8.0 kmh S 5.1 mph8.2 kmh 29.99 in1015.6 mb 0.00 in0.0 mm 0.00 in0.0 mm 0.04 in1.0 mm
10:30 AM 77.2°F25.1°C 72.3°F22.4°C 85% Calm Calm 3.0 mph4.8 kmh 29.99 in1015.6 mb 0.00 in0.0 mm 0.00 in0.0 mm 0.04 in1.0 mm
10:45 AM 78.1°F25.6°C 73.2°F22.9°C 85% 1.0 mph S1.6 kmh S 4.0 mph6.4 kmh 29.99 in1015.6 mb 0.00 in0.0 mm 0.00 in0.0 mm 0.04 in1.0 mm
11:00 AM 77.5°F25.3°C 71.9°F22.2°C 83% 4.0 mph SE6.4 kmh SE 4.0 mph6.4 kmh 29.99 in1015.6 mb 0.00 in0.0 mm 0.00 in0.0 mm 0.04 in1.0 mm
11:15 AM 78.4°F25.8°C 72.4°F22.4°C 82% 2.0 mph SSW3.2 kmh SSW 5.1 mph8.2 kmh 29.99 in1015.6 mb 0.00 in0.0 mm 0.00 in0.0 mm 0.04 in1.0 mm
11:30 AM 79.3°F26.3°C 73.0°F22.8°C 81% 2.0 mph SE3.2 kmh SE 7.1 mph11.4 kmh 29.99 in1015.6 mb 0.00 in0.0 mm 0.00 in0.0 mm 0.04 in1.0 mm
11:45 AM 79.0°F26.1°C 72.7°F22.6°C 81% 2.0 mph SSE3.2 kmh SSE 6.1 mph9.8 kmh 29.99 in1015.6 mb 0.00 in0.0 mm 0.00 in0.0 mm 0.04 in1.0 mm
12:00 PM 75.6°F24.2°C 72.4°F22.4°C 90% 2.0 mph WSW3.2 kmh WSW 2.0 mph3.2 kmh 29.99 in1015.6 mb 0.02 in0.5 mm 0.03 in0.8 mm 0.06 in1.5 mm
12:15 PM 74.4°F23.6°C 72.2°F22.3°C 93% 19.0 mph S30.6 kmh S 19.2 mph30.9 kmh 29.98 in1015.2 mb 0.08 in2.0 mm 0.24 in6.1 mm 0.12 in3.0 mm
12:30 PM 72.9°F22.7°C 70.7°F21.5°C 93% 4.0 mph SW6.4 kmh SW 9.1 mph14.6 kmh 29.99 in1015.6 mb 0.14 in3.6 mm 0.24 in6.1 mm 0.18 in4.6 mm
12:45 PM 72.8°F22.7°C 70.3°F21.3°C 92% 3.0 mph S4.8 kmh S 4.0 mph6.4 kmh 29.99 in1015.6 mb 0.18 in4.6 mm 0.16 in4.1 mm 0.22 in5.6 mm
01:00 PM 73.5°F23.1°C 71.0°F21.7°C 92% 1.0 mph SSE1.6 kmh SSE 1.0 mph1.6 kmh 29.98 in1015.2 mb 0.20 in5.1 mm 0.03 in0.8 mm 0.24 in6.1 mm
01:15 PM 75.4°F24.1°C 72.6°F22.6°C 91% Calm Calm -- 29.97 in1014.9 mb 0.23 in5.8 mm 0.12 in3.0 mm 0.27 in6.9 mm
01:30 PM 75.7°F24.3°C 72.5°F22.5°C 90% 3.0 mph E4.8 kmh E 4.0 mph6.4 kmh 29.97 in1014.9 mb 0.13 in3.3 mm 0.00 in0.0 mm 0.27 in6.9 mm
01:45 PM 75.7°F24.3°C 72.9°F22.7°C 91% Calm Calm 2.0 mph3.2 kmh 29.97 in1014.9 mb 0.13 in3.3 mm 0.00 in0.0 mm 0.27 in6.9 mm
02:00 PM 75.8°F24.3°C 72.6°F22.6°C 90% Calm Calm -- 29.96 in1014.6 mb 0.04 in1.0 mm 0.00 in0.0 mm 0.27 in6.9 mm
02:15 PM 77.5°F25.3°C 74.3°F23.5°C 90% Calm Calm -- 29.96 in1014.6 mb 0.04 in1.0 mm 0.00 in0.0 mm 0.27 in6.9 mm
02:30 PM 79.6°F26.4°C 73.6°F23.1°C 82% 2.0 mph ENE3.2 kmh ENE 4.0 mph6.4 kmh 29.95 in1014.2 mb 0.00 in0.0 mm 0.00 in0.0 mm 0.27 in6.9 mm
02:45 PM 78.6°F25.9°C 73.0°F22.8°C 83% 1.0 mph E1.6 kmh E 3.0 mph4.8 kmh 29.95 in1014.2 mb 0.00 in0.0 mm 0.00 in0.0 mm 0.27 in6.9 mm
03:00 PM 77.5°F25.3°C 74.0°F23.3°C 89% Calm Calm -- 29.94 in1013.9 mb 0.00 in0.0 mm 0.00 in0.0 mm 0.27 in6.9 mm
03:15 PM 76.5°F24.7°C 73.3°F22.9°C 90% Calm Calm -- 29.93 in1013.5 mb 0.01 in0.3 mm 0.04 in1.0 mm 0.28 in7.1 mm
03:30 PM 74.9°F23.8°C 72.1°F22.3°C 91% Calm Calm 3.0 mph4.8 kmh 29.95 in1014.2 mb 0.06 in1.5 mm 0.20 in5.1 mm 0.33 in8.4 mm
03:45 PM 73.0°F22.8°C 71.1°F21.7°C 94% Calm Calm 2.0 mph3.2 kmh 29.94 in1013.9 mb 0.14 in3.6 mm 0.32 in8.1 mm 0.41 in10.4 mm
04:00 PM 72.6°F22.6°C 71.1°F21.7°C 95% 1.0 mph SW1.6 kmh SW 2.0 mph3.2 kmh 29.95 in1014.2 mb 0.25 in6.4 mm 0.15 in3.8 mm 0.52 in13.2 mm
04:15 PM 72.0°F22.2°C 70.1°F21.2°C 94% Calm Calm 2.0 mph3.2 kmh 29.94 in1013.9 mb 0.37 in9.4 mm 0.48 in12.2 mm 0.64 in16.3 mm
04:30 PM 71.8°F22.1°C 70.3°F21.3°C 95% Calm Calm -- 29.94 in1013.9 mb 0.43 in10.9 mm 0.24 in6.1 mm 0.70 in17.8 mm
04:45 PM 71.6°F22.0°C 70.4°F21.3°C 96% Calm Calm 2.0 mph3.2 kmh 29.94 in1013.9 mb 0.56 in14.2 mm 0.52 in13.2 mm 0.83 in21.1 mm
05:00 PM 71.7°F22.1°C 70.5°F21.4°C 96% Calm Calm -- 29.93 in1013.5 mb 0.48 in12.2 mm 0.00 in0.0 mm 0.83 in21.1 mm
05:15 PM 71.8°F22.1°C 70.6°F21.4°C 96% 1.0 mph ESE1.6 kmh ESE 4.0 mph6.4 kmh 29.93 in1013.5 mb 0.59 in15.0 mm 0.44 in11.2 mm 0.94 in23.9 mm
05:30 PM 72.0°F22.2°C 70.8°F21.6°C 96% Calm Calm -- 29.94 in1013.9 mb 0.45 in11.4 mm 0.00 in0.0 mm 0.94 in23.9 mm
05:45 PM 71.8°F22.1°C 70.6°F21.4°C 96% Calm Calm -- 29.94 in1013.9 mb 0.62 in15.7 mm 0.68 in17.3 mm 1.11 in28.2 mm
06:00 PM 71.8°F22.1°C 70.6°F21.4°C 96% Calm Calm -- 29.94 in1013.9 mb 0.42 in10.7 mm 0.00 in0.0 mm 1.11 in28.2 mm
06:15 PM 71.7°F22.1°C 70.5°F21.4°C 96% Calm Calm 1.0 mph1.6 kmh 29.94 in1013.9 mb 0.42 in10.7 mm 0.00 in0.0 mm 1.11 in28.2 mm
06:30 PM 71.6°F22.0°C 70.4°F21.3°C 96% 2.0 mph E3.2 kmh E 2.0 mph3.2 kmh 29.94 in1013.9 mb 0.26 in6.6 mm 0.00 in0.0 mm 1.11 in28.2 mm
06:45 PM 71.5°F21.9°C 70.3°F21.3°C 96% Calm Calm 1.0 mph1.6 kmh 29.93 in1013.5 mb 0.31 in7.9 mm 0.20 in5.1 mm 1.16 in29.5 mm
07:00 PM 71.5°F21.9°C 70.3°F21.3°C 96% Calm Calm -- 29.94 in1013.9 mb 0.14 in3.6 mm 0.00 in0.0 mm 1.16 in29.5 mm
07:15 PM 71.6°F22.0°C 70.4°F21.3°C 96% Calm Calm -- 29.94 in1013.9 mb 0.14 in3.6 mm 0.00 in0.0 mm 1.16 in29.5 mm
07:30 PM 71.5°F21.9°C 70.3°F21.3°C 96% Calm Calm -- 29.95 in1014.2 mb 0.09 in2.3 mm 0.00 in0.0 mm 1.16 in29.5 mm
07:45 PM 71.4°F21.9°C 70.2°F21.2°C 96% 1.0 mph E1.6 kmh E 3.0 mph4.8 kmh 29.94 in1013.9 mb 0.09 in2.3 mm 0.00 in0.0 mm 1.16 in29.5 mm
08:00 PM 71.3°F21.8°C 70.4°F21.3°C 97% Calm Calm -- 29.94 in1013.9 mb 0.00 in0.0 mm 0.00 in0.0 mm 1.16 in29.5 mm
08:15 PM 71.2°F21.8°C 70.3°F21.3°C 97% Calm Calm -- 29.95 in1014.2 mb 0.00 in0.0 mm 0.00 in0.0 mm 1.16 in29.5 mm
08:30 PM 71.2°F21.8°C 70.3°F21.3°C 97% 1.0 mph E1.6 kmh E 1.0 mph1.6 kmh 29.95 in1014.2 mb 0.00 in0.0 mm 0.00 in0.0 mm 1.16 in29.5 mm
08:45 PM 71.1°F21.7°C 70.2°F21.2°C 97% Calm Calm -- 29.96 in1014.6 mb 0.01 in0.3 mm 0.04 in1.0 mm 1.17 in29.7 mm
09:00 PM 71.1°F21.7°C 70.2°F21.2°C 97% Calm Calm 2.0 mph3.2 kmh 29.96 in1014.6 mb 0.01 in0.3 mm 0.00 in0.0 mm 1.17 in29.7 mm
09:15 PM 71.1°F21.7°C 70.2°F21.2°C 97% 2.0 mph SSE3.2 kmh SSE 8.1 mph13.0 kmh 29.97 in1014.9 mb 0.03 in0.8 mm 0.08 in2.0 mm 1.19 in30.2 mm
09:30 PM 70.9°F21.6°C 70.0°F21.1°C 97% 1.0 mph S1.6 kmh S 6.1 mph9.8 kmh 29.97 in1014.9 mb 0.05 in1.3 mm 0.08 in2.0 mm 1.21 in30.7 mm
09:45 PM 70.4°F21.3°C 69.5°F20.8°C 97% 2.0 mph S3.2 kmh S 5.1 mph8.2 kmh 29.96 in1014.6 mb 0.09 in2.3 mm 0.16 in4.1 mm 1.25 in31.8 mm
10:00 PM 69.9°F21.1°C 69.0°F20.6°C 97% Calm Calm 1.0 mph1.6 kmh 29.96 in1014.6 mb 0.10 in2.5 mm 0.01 in0.3 mm 1.26 in32.0 mm
10:15 PM 69.7°F20.9°C 68.8°F20.4°C 97% 2.0 mph S3.2 kmh S 4.0 mph6.4 kmh 29.95 in1014.2 mb 0.11 in2.8 mm 0.04 in1.0 mm 1.27 in32.3 mm
10:30 PM 69.6°F20.9°C 68.7°F20.4°C 97% Calm Calm 2.0 mph3.2 kmh 29.96 in1014.6 mb 0.07 in1.8 mm 0.00 in0.0 mm 1.27 in32.3 mm
10:45 PM 69.5°F20.8°C 68.6°F20.3°C 97% 2.0 mph S3.2 kmh S 5.1 mph8.2 kmh 29.96 in1014.6 mb 0.07 in1.8 mm 0.00 in0.0 mm 1.27 in32.3 mm
11:00 PM 69.4°F20.8°C 68.8°F20.4°C 98% 2.0 mph S3.2 kmh S 3.0 mph4.8 kmh 29.96 in1014.6 mb 0.01 in0.3 mm 0.00 in0.0 mm 1.27 in32.3 mm
11:15 PM 69.4°F20.8°C 68.8°F20.4°C 98% 1.0 mph SE1.6 kmh SE 3.0 mph4.8 kmh 29.96 in1014.6 mb 0.01 in0.3 mm 0.00 in0.0 mm 1.27 in32.3 mm
11:30 PM 69.2°F20.7°C 68.7°F20.4°C 98% 2.0 mph SSW3.2 kmh SSW 5.1 mph8.2 kmh 29.96 in1014.6 mb 0.00 in0.0 mm 0.00 in0.0 mm 1.27 in32.3 mm
11:45 PM 69.2°F20.7°C 68.7°F20.4°C 98% 1.0 mph S1.6 kmh S 2.0 mph3.2 kmh 29.96 in1014.6 mb 0.00 in0.0 mm 0.00 in0.0 mm 1.27 in32.3 mm